createdAt,value
2018-10-16T00:01:14.916Z,10.90
2018-10-16T00:03:44.985Z,10.90
2018-10-16T00:06:15.136Z,10.90
2018-10-16T00:08:45.260Z,10.90
2018-10-16T00:11:15.360Z,10.80
2018-10-16T00:13:45.612Z,10.80
2018-10-16T00:16:15.760Z,10.70
2018-10-16T00:18:45.843Z,10.60
2018-10-16T00:21:16.027Z,10.70
2018-10-16T00:23:46.102Z,10.60
2018-10-16T00:26:16.216Z,10.60
2018-10-16T00:28:46.332Z,10.50
2018-10-16T00:31:16.537Z,10.50
2018-10-16T00:33:46.629Z,10.40
2018-10-16T00:36:16.721Z,10.40
2018-10-16T00:38:47.029Z,10.40
2018-10-16T00:41:17.113Z,10.40
2018-10-16T00:43:47.440Z,10.40
2018-10-16T00:46:17.512Z,10.40
2018-10-16T00:48:47.613Z,10.30
2018-10-16T00:51:17.704Z,10.20
2018-10-16T00:53:47.837Z,10.30
2018-10-16T00:56:18.052Z,10.20
2018-10-16T00:58:48.171Z,10.20
2018-10-16T01:01:22.513Z,10.30
2018-10-16T01:03:52.596Z,10.20
2018-10-16T01:06:22.720Z,10.20
2018-10-16T01:08:53.212Z,10.30
2018-10-16T01:11:24.743Z,10.30
2018-10-16T01:13:56.428Z,10.30
2018-10-16T01:16:26.699Z,10.30
2018-10-16T01:18:56.815Z,10.30
2018-10-16T01:21:26.984Z,10.30
2018-10-16T01:23:57.088Z,10.20
2018-10-16T01:26:27.207Z,10.20
2018-10-16T01:28:57.325Z,10.30
2018-10-16T01:31:27.446Z,10.20
2018-10-16T01:33:57.543Z,10.20
2018-10-16T01:36:27.652Z,10.20
2018-10-16T01:38:58.238Z,10.20
2018-10-16T01:41:28.324Z,10.20
2018-10-16T01:43:58.432Z,10.20
2018-10-16T01:46:28.545Z,10.20
2018-10-16T01:48:58.684Z,10.20
2018-10-16T01:51:28.765Z,10.20
2018-10-16T01:53:58.872Z,10.20
2018-10-16T01:56:28.961Z,10.20
2018-10-16T01:58:59.048Z,10.20
2018-10-16T02:01:29.088Z,10.20
2018-10-16T02:03:59.253Z,10.30
2018-10-16T02:06:29.992Z,10.20
2018-10-16T02:09:00.096Z,10.20
2018-10-16T02:11:30.197Z,10.20
2018-10-16T02:14:00.302Z,10.20
2018-10-16T02:16:30.360Z,10.20
2018-10-16T02:19:00.343Z,10.20
2018-10-16T02:21:30.337Z,10.10
2018-10-16T02:24:00.449Z,10.20
2018-10-16T02:26:30.525Z,10.20
2018-10-16T02:29:00.600Z,10.20
2018-10-16T02:31:30.657Z,10.10
2018-10-16T02:34:00.772Z,10.20
2018-10-16T02:36:30.888Z,10.20
2018-10-16T02:39:01.011Z,10.20
2018-10-16T02:41:31.072Z,10.10
2018-10-16T02:44:01.176Z,10.10
2018-10-16T02:46:31.382Z,10.10
2018-10-16T02:49:01.433Z,10.10
2018-10-16T02:51:31.824Z,10.10
2018-10-16T02:54:01.902Z,10.10
2018-10-16T02:56:31.984Z,10.10
2018-10-16T02:59:02.297Z,10.00
2018-10-16T03:01:32.405Z,10.00
2018-10-16T03:04:02.476Z,9.80
2018-10-16T03:06:32.575Z,9.80
2018-10-16T03:09:02.737Z,9.80
2018-10-16T03:11:32.832Z,9.70
2018-10-16T03:14:03.125Z,9.70
2018-10-16T03:16:33.324Z,9.70
2018-10-16T03:19:03.413Z,9.70
2018-10-16T03:21:33.473Z,9.70
2018-10-16T03:24:03.573Z,9.70
2018-10-16T03:26:33.629Z,9.70
2018-10-16T03:29:03.701Z,9.70
2018-10-16T03:31:33.800Z,9.70
2018-10-16T03:34:03.947Z,9.60
2018-10-16T03:36:34.012Z,9.50
2018-10-16T03:39:05.008Z,9.50
2018-10-16T03:41:35.121Z,9.50
2018-10-16T03:44:09.332Z,9.40
2018-10-16T03:46:39.478Z,9.30
2018-10-16T03:49:10.586Z,9.30
2018-10-16T03:51:41.588Z,9.20
2018-10-16T03:54:11.711Z,9.20
2018-10-16T03:56:41.752Z,9.20
2018-10-16T03:59:11.845Z,9.20
2018-10-16T04:01:41.932Z,9.20
2018-10-16T04:04:12.013Z,9.20
2018-10-16T04:06:42.121Z,9.20
2018-10-16T04:09:12.173Z,9.20
2018-10-16T04:11:42.277Z,9.30
2018-10-16T04:14:12.333Z,9.30
2018-10-16T04:16:43.241Z,9.30
2018-10-16T04:19:13.340Z,9.30
2018-10-16T04:21:45.660Z,9.30
2018-10-16T04:24:16.148Z,9.30
2018-10-16T04:26:46.268Z,9.30
2018-10-16T04:29:16.447Z,9.30
2018-10-16T04:31:46.464Z,9.20
2018-10-16T04:34:16.549Z,9.20
2018-10-16T04:36:46.620Z,9.10
2018-10-16T04:39:16.719Z,9.20
2018-10-16T04:41:46.808Z,9.20
2018-10-16T04:44:17.008Z,9.20
2018-10-16T04:46:47.588Z,9.10
2018-10-16T04:49:17.688Z,9.10
2018-10-16T04:51:47.796Z,9.10
2018-10-16T04:54:17.903Z,9.20
2018-10-16T04:56:48.364Z,9.20
2018-10-16T04:59:18.496Z,9.20
2018-10-16T05:01:48.596Z,9.20
2018-10-16T05:04:18.846Z,9.20
2018-10-16T05:06:48.956Z,9.20
2018-10-16T05:09:19.213Z,9.10
2018-10-16T05:11:51.322Z,9.00
2018-10-16T05:14:21.437Z,8.90
2018-10-16T05:16:52.198Z,9.00
2018-10-16T05:19:22.884Z,9.00
2018-10-16T05:21:53.022Z,9.00
2018-10-16T05:24:23.194Z,9.00
2018-10-16T05:26:53.308Z,9.00
2018-10-16T05:29:23.386Z,8.90
2018-10-16T05:31:53.544Z,9.00
2018-10-16T05:34:23.652Z,9.00
2018-10-16T05:36:53.796Z,8.90
2018-10-16T05:39:24.167Z,9.00
2018-10-16T05:41:54.868Z,9.10
2018-10-16T05:44:25.045Z,9.10
2018-10-16T05:46:55.205Z,9.10
2018-10-16T05:49:25.351Z,9.10
2018-10-16T05:51:55.549Z,9.10
2018-10-16T05:54:25.690Z,9.10
2018-10-16T05:56:56.773Z,9.10
2018-10-16T05:59:26.900Z,9.10
2018-10-16T06:01:58.348Z,9.10
2018-10-16T06:04:29.040Z,9.10
2018-10-16T06:06:59.837Z,9.10
2018-10-16T06:09:30.734Z,9.10
2018-10-16T06:12:00.880Z,9.10
2018-10-16T06:14:31.672Z,9.10
2018-10-16T06:17:01.814Z,9.10
2018-10-16T06:19:31.984Z,9.20
2018-10-16T06:22:02.133Z,9.20
2018-10-16T06:24:32.382Z,9.30
2018-10-16T06:27:03.125Z,9.30
2018-10-16T06:29:33.857Z,9.40
2018-10-16T06:32:04.140Z,9.40
2018-10-16T06:34:35.480Z,9.50
2018-10-16T06:37:06.008Z,9.50
2018-10-16T06:39:37.421Z,9.50
2018-10-16T06:42:08.769Z,9.60
2018-10-16T06:44:38.993Z,9.60
2018-10-16T06:47:09.913Z,9.70
2018-10-16T06:49:40.017Z,9.70
2018-10-16T06:52:10.245Z,9.80
2018-10-16T14:23:18.351Z,13.10
2018-10-16T14:25:49.134Z,13.00
2018-10-16T14:28:19.765Z,13.00
2018-10-16T14:30:49.968Z,13.00
2018-10-16T14:33:20.063Z,13.00
2018-10-16T14:35:50.189Z,13.00
2018-10-16T14:38:21.347Z,13.00
2018-10-16T14:40:51.486Z,13.00
2018-10-16T14:43:22.274Z,13.00
2018-10-16T14:45:52.452Z,13.00
2018-10-16T14:48:22.517Z,13.00
2018-10-16T14:50:53.058Z,13.00
2018-10-16T14:53:23.277Z,13.00
2018-10-16T14:55:54.571Z,13.00
2018-10-16T14:58:24.644Z,13.00
2018-10-16T15:00:55.720Z,13.00
2018-10-16T15:03:25.953Z,12.90
2018-10-16T15:05:56.190Z,12.90
2018-10-16T15:08:27.325Z,12.90
2018-10-16T15:10:57.969Z,12.90
2018-10-16T15:13:28.838Z,12.90
2018-10-16T15:16:00.098Z,12.90
2018-10-16T15:18:30.854Z,12.80
2018-10-16T15:21:00.953Z,12.80
2018-10-16T15:23:30.995Z,12.70
2018-10-16T15:26:02.333Z,12.70
2018-10-16T15:28:32.705Z,12.60
2018-10-16T15:31:03.331Z,12.60
2018-10-16T15:33:33.489Z,12.60
2018-10-16T15:36:03.695Z,12.60
2018-10-16T15:38:33.885Z,12.50
2018-10-16T15:41:04.830Z,12.50
2018-10-16T15:43:34.897Z,12.50
2018-10-16T15:46:05.281Z,12.40
2018-10-16T15:48:36.286Z,12.40
2018-10-16T15:51:06.521Z,12.40
2018-10-16T15:53:36.582Z,12.40
2018-10-16T15:56:07.811Z,12.30
2018-10-16T15:58:37.838Z,12.20
2018-10-16T16:01:09.869Z,12.30
2018-10-16T16:03:40.898Z,12.20
2018-10-16T16:06:11.058Z,12.20
2018-10-16T16:08:41.153Z,12.20
2018-10-16T16:11:11.953Z,12.10
2018-10-16T16:13:42.032Z,12.00
2018-10-16T16:16:12.531Z,12.00
2018-10-16T16:18:42.646Z,12.00
2018-10-16T16:21:12.739Z,12.00
2018-10-16T16:23:42.717Z,12.10
2018-10-16T16:26:12.897Z,12.00
2018-10-16T16:28:42.961Z,12.00
2018-10-16T16:31:12.940Z,11.90
2018-10-16T16:33:43.021Z,11.90
2018-10-16T16:36:13.320Z,11.90
2018-10-16T16:38:43.385Z,11.90
2018-10-16T16:41:13.496Z,11.80
2018-10-16T16:43:43.671Z,11.80
2018-10-16T16:46:13.808Z,11.90
2018-10-16T16:48:44.399Z,11.80
2018-10-16T16:51:14.554Z,11.80
2018-10-16T16:53:45.592Z,11.90
2018-10-16T16:56:15.908Z,11.90
2018-10-16T16:58:46.648Z,11.80
2018-10-16T17:01:16.955Z,11.80
2018-10-16T17:03:47.020Z,11.80
2018-10-16T17:06:17.737Z,11.80
2018-10-16T17:08:47.721Z,11.70
2018-10-16T17:11:17.977Z,11.70
2018-10-16T17:13:48.016Z,11.70
2018-10-16T17:16:18.133Z,11.70
2018-10-16T17:18:48.096Z,11.70
2018-10-16T17:21:18.817Z,11.70
2018-10-16T17:23:48.948Z,11.70
2018-10-16T17:26:19.387Z,11.70
2018-10-16T17:28:49.253Z,11.70
2018-10-16T17:31:19.397Z,11.90
2018-10-16T17:33:49.534Z,11.90
2018-10-16T17:36:19.733Z,11.80
2018-10-16T17:38:49.961Z,11.80
2018-10-16T17:41:20.245Z,11.80
2018-10-16T17:43:50.376Z,11.80
2018-10-16T17:46:20.718Z,11.70
2018-10-16T17:48:50.861Z,11.70
2018-10-16T17:51:20.994Z,11.70
2018-10-16T17:53:50.996Z,11.70
2018-10-16T17:56:21.100Z,11.70
2018-10-16T17:58:51.921Z,11.70
2018-10-16T18:01:22.013Z,11.70
2018-10-16T18:03:52.784Z,11.70
2018-10-16T18:06:22.888Z,11.70
2018-10-16T18:08:53.992Z,11.70
2018-10-16T18:11:24.137Z,11.60
2018-10-16T18:13:54.293Z,11.60
2018-10-16T18:16:24.351Z,11.60
2018-10-16T18:18:54.537Z,11.60
2018-10-16T18:21:26.216Z,11.60
2018-10-16T18:23:56.351Z,11.50
2018-10-16T18:26:26.468Z,11.50
2018-10-16T18:28:56.809Z,11.50
2018-10-16T18:31:26.973Z,11.50
2018-10-16T18:33:57.109Z,11.50
2018-10-16T18:36:27.680Z,11.50
2018-10-16T18:38:57.891Z,11.50
2018-10-16T18:41:28.004Z,11.50
2018-10-16T18:43:58.265Z,11.50
2018-10-16T18:46:29.713Z,11.50
2018-10-16T18:48:59.900Z,11.40
2018-10-16T18:51:30.077Z,11.40
2018-10-16T18:54:01.393Z,11.40
2018-10-16T18:56:31.786Z,11.40
2018-10-16T18:59:01.862Z,11.40
2018-10-16T19:01:32.497Z,11.40
2018-10-16T19:04:03.044Z,11.40
2018-10-16T19:06:33.181Z,11.40
2018-10-16T19:09:05.565Z,11.40
2018-10-16T19:11:36.215Z,11.30
2018-10-16T19:14:07.293Z,11.30
2018-10-16T19:16:38.243Z,11.30
2018-10-16T19:19:08.978Z,11.30
2018-10-16T19:21:39.052Z,11.30
2018-10-16T19:24:09.253Z,11.30
2018-10-16T19:26:40.915Z,11.20
2018-10-16T19:29:12.575Z,11.30
2018-10-16T19:31:49.374Z,11.30
2018-10-16T19:34:19.441Z,11.30
2018-10-16T19:36:50.317Z,11.30
2018-10-16T19:39:21.065Z,11.30
2018-10-16T19:41:51.773Z,11.30
2018-10-16T19:44:21.872Z,11.30
2018-10-16T19:46:51.958Z,11.30
2018-10-16T19:49:22.060Z,11.30
2018-10-16T19:51:52.338Z,11.30
2018-10-16T19:54:23.273Z,11.30
2018-10-16T19:56:53.405Z,11.30
2018-10-16T19:59:23.540Z,11.30
2018-10-16T20:01:54.360Z,11.20
2018-10-16T20:04:24.461Z,11.20
2018-10-16T20:06:54.698Z,11.30
2018-10-16T20:09:24.917Z,11.20
2018-10-16T20:11:55.537Z,11.20
2018-10-16T20:14:25.628Z,11.20
2018-10-16T20:16:55.713Z,11.20
2018-10-16T20:19:25.936Z,11.20
2018-10-16T20:21:56.028Z,11.10
2018-10-16T20:24:27.453Z,10.90
2018-10-16T20:26:57.569Z,10.80
2018-10-16T20:29:28.918Z,10.80
2018-10-16T20:31:59.070Z,10.80
2018-10-16T20:34:29.533Z,10.80
2018-10-16T20:36:59.704Z,10.80
2018-10-16T20:39:29.762Z,10.80
2018-10-16T20:41:59.917Z,10.80
2018-10-16T20:44:30.317Z,10.80
2018-10-16T20:47:01.660Z,10.80
2018-10-16T20:49:31.773Z,10.70
2018-10-16T20:52:01.940Z,10.70
2018-10-16T20:54:32.060Z,10.70
2018-10-16T20:57:02.193Z,10.70
2018-10-16T20:59:32.333Z,10.60
2018-10-16T21:02:02.504Z,10.60
2018-10-16T21:04:32.618Z,10.70
2018-10-16T21:07:02.872Z,10.70
2018-10-16T21:09:33.133Z,10.70
2018-10-16T21:12:03.252Z,10.70
2018-10-16T21:14:33.351Z,10.60
2018-10-16T21:17:03.486Z,10.60
2018-10-16T21:19:33.666Z,10.60
2018-10-16T21:22:04.204Z,10.60
2018-10-16T21:24:35.227Z,10.70
2018-10-16T21:27:07.836Z,10.70
2018-10-16T21:29:37.936Z,10.70
2018-10-16T21:32:08.869Z,10.70
2018-10-16T21:34:39.413Z,10.70
2018-10-16T21:37:09.635Z,10.70
2018-10-16T21:39:40.036Z,10.70
2018-10-16T21:42:10.116Z,10.70
2018-10-16T21:44:40.232Z,10.70
2018-10-16T21:47:10.406Z,10.70
2018-10-16T21:49:40.440Z,10.70
2018-10-16T21:52:10.544Z,10.70
2018-10-16T21:54:40.611Z,10.70
2018-10-16T21:57:10.685Z,10.70
2018-10-16T21:59:40.969Z,10.70
2018-10-16T22:02:16.616Z,10.70
2018-10-16T22:04:47.368Z,10.70
2018-10-16T22:07:17.513Z,10.80
2018-10-16T22:09:48.476Z,10.80
2018-10-16T22:12:19.356Z,10.80
2018-10-16T22:14:50.084Z,10.80
2018-10-16T22:17:21.164Z,10.80
2018-10-16T22:19:51.294Z,10.80
2018-10-16T22:22:21.356Z,10.80
2018-10-16T22:24:51.422Z,10.80
2018-10-16T22:27:21.550Z,10.80
2018-10-16T22:29:52.599Z,10.70
2018-10-16T22:32:22.708Z,10.70
2018-10-16T22:34:52.818Z,10.70
2018-10-16T22:37:22.916Z,10.70
2018-10-16T22:39:53.032Z,10.70
2018-10-16T22:42:23.632Z,10.80
2018-10-16T22:44:54.332Z,10.80
2018-10-16T22:47:24.952Z,10.80
2018-10-16T22:49:55.084Z,10.80
2018-10-16T22:52:25.183Z,10.80
2018-10-16T22:54:55.364Z,10.80
2018-10-16T22:57:26.205Z,10.80
2018-10-16T22:59:56.327Z,10.80
2018-10-16T23:02:26.424Z,10.80
2018-10-16T23:04:57.059Z,10.80
2018-10-16T23:07:27.137Z,10.80
2018-10-16T23:09:57.244Z,10.80
2018-10-16T23:12:27.364Z,10.80
2018-10-16T23:14:57.477Z,10.90
2018-10-16T23:17:27.590Z,10.90
2018-10-16T23:19:57.860Z,10.90
2018-10-16T23:22:27.969Z,10.90
2018-10-16T23:24:58.689Z,10.90
2018-10-16T23:27:29.220Z,10.90
2018-10-16T23:29:59.309Z,10.90
2018-10-16T23:32:29.426Z,10.90
2018-10-16T23:34:59.573Z,11.00
2018-10-16T23:37:29.631Z,11.00
2018-10-16T23:39:59.692Z,11.00
2018-10-16T23:42:29.813Z,11.10
2018-10-16T23:44:59.900Z,11.10
2018-10-16T23:47:30.000Z,11.10
2018-10-16T23:50:00.112Z,11.00
2018-10-16T23:52:30.852Z,11.00
2018-10-16T23:55:01.020Z,11.00
2018-10-16T23:57:31.095Z,11.00
